Kryvyi Rih, Ukraine
Current Conditions -  °F | °C
As of 12:30 AM on Thursday 23 Oct 2014 (Local Time) from UKDR Reporting Station
Haze Haze  
Wind Chill: 50°   Ceiling: 10000
Heat Index: 50°   Visibility: 1.3mi
Dew Point: 48°   Wind: 9mph
Humidity: 94%   Direction: 60°ENE
Pressure: 29.83"   Gusts: NA
Location:  47.9°N, 33.38°E
Report Text: UKDR 222130Z 06004MPS 2100 BR OVC100 10/09 Q1010 1809//70 NOSIG
Loading
Personal Weather Stations






























Interactive Weather Map
Tropical Storm Tracking
New forecast layout! Learn more

10-Day Weather Forecast

Advertisements
Track Severe Weather on mobile